Startpagina
METAR-TAF:

METAR-TAF

Vliegvelden :

Norman Manley International Airport

Kingston, Jamaica

breedte: 17-56N, lengte: 076-47W, hoogte: 3 m

Actueel weer

Dit bericht is 12 minuten geleden gemaakt, om 21:00 UTC
Wind 23 kt uit het zuidoosten
Temperatuur 32°C
Vochtigheid 67%
Druk 1012 hPa
Zicht 10 km of meer
Weinig wolken op 2200 ft

METAR: MKJP 212100Z 14023KT 9999 FEW022 32/25 Q1012

Tijdstip: 16:12 (21:12 UTC)

Verwachting

Dit bericht is 3 uur en het 57 minuten geleden gemaakt, om 17:15 UTC
Verwachting geldig van 21 om 18 UTC tot 22 om 18 UTC
Wind 25 kt uit het zuidoosten
Zicht 10 km of meer
Weinig wolken op 2200 ft
Wijzigt naar
van 21 om 23 UTC tot 22 om 01 UTC
Wind 15 kt uit het zuidoosten
Wijzigt naar
van 22 om 07 UTC tot 22 om 09 UTC
Wind 5 kt uit het noorden
Wijzigt naar
van 22 om 14 UTC tot 22 om 16 UTC
Wind 25 kt uit het zuidoosten

TAF: MKJP 211715Z 2118/2218 14025KT 9999 FEW022 BECMG 2123/2201 13015KT BECMG 2207/2209 35005KT BECMG 2214/2216 14025KT

Waarnemingen en weersverwachtingen van meer dan 4000 vliegvelden (METAR en TAF).

De beschikbare stations zijn de gele en rode punten op de kaart.

Ga met uw muis naar het station om de naam te zien.

Klik dan om waarnemingen en weersverwachtingen te zien.

kaart wijzigen: klik op de groene knoppen met een zwart kruis om in te zoomen, op de groene knop met een streepje om uit te zoomen of op de groene pijlen voor aangrenzende kaarten.


METAR-TAF: